• Join FlightAware (Why Join?)
  • Login
  • US Flag 
04:04PM EST


 

Airport Tracker/Info


-or-


 

Live Flight TrackerFlight Track Log ✈ USC105 ✈ 24-Jun-2013 ✈ KLCK - KBKL

Flight Track Log - Related Links

Times and Time Zones

All times are in EDT time to prevent confusion due to time zone crossing. See the USC105 flight status page for this flight to view local times or setup timezone preferences in your user account.

Time Position Orientation Groundspeed Altitude Reporting Facility
EDT Latitude Longitude Course Direction KTS MPH feet Rate Location/Type
09:51PM 39.8058 -82.9419 225° Southwest 117 135 900  Level Indianapolis Center
09:53PM 39.7819 -82.9728 225° Southwest 105 121 2,100 900 Climbing Indianapolis Center
09:54PM 39.7972 -83.0036 303° West 147 169 2,900 720 Climbing Indianapolis Center
09:55PM 39.8375 -83.0000 North 151 174 3,600 720 Climbing Indianapolis Center
09:56PM 39.8783 -82.9831 18° North 161 185 4,400 840 Climbing Indianapolis Center
09:57PM 39.9136 -82.9544 32° Northeast 158 182 5,300 840 Climbing Indianapolis Center
09:58PM 39.9553 -82.9267 27° Northeast 148 170 6,200 780 Climbing Indianapolis Center
09:59PM 39.9864 -82.9003 33° Northeast 147 169 6,900 360 Climbing Indianapolis Center
10:00PM 40.0303 -82.8697 28° Northeast 189 217 7,000  Climbing Indianapolis Center
10:01PM 40.0725 -82.8336 33° Northeast 185 213 7,000  Level Indianapolis Center
10:02PM 40.1272 -82.7964 27° Northeast 183 211 7,000  Level Indianapolis Center
10:03PM 40.1694 -82.7628 31° Northeast 188 216 7,000  Level Indianapolis Center
10:04PM 40.2133 -82.7294 30° Northeast 189 217 7,000  Level Indianapolis Center
10:05PM 40.2642 -82.6889 31° Northeast 190 219 7,000  Level Indianapolis Center
10:06PM 40.3106 -82.6503 32° Northeast 192 221 7,000  Level Indianapolis Center
10:07PM 40.3578 -82.6139 30° Northeast 194 223 7,000  Level Indianapolis Center
10:08PM 40.3986 -82.5833 30° Northeast 191 220 7,000  Level Indianapolis Center
10:09PM 40.4492 -82.5400 33° Northeast 190 219 7,000  Level Indianapolis Center
10:10PM 40.4953 -82.5036 31° Northeast 191 220 7,000  Level Indianapolis Center
10:11PM 40.5425 -82.4683 30° Northeast 193 222 7,000  Level Indianapolis Center
10:12PM 40.5883 -82.4311 32° Northeast 192 221 7,000  Level Indianapolis Center
10:13PM 40.6336 -82.3958 31° Northeast 187 215 7,000  Level Indianapolis Center
10:14PM 40.6786 -82.3592 32° Northeast 190 219 7,000  Level Indianapolis Center
10:15PM 40.7242 -82.3222 32° Northeast 190 219 7,000 -120 Level Indianapolis Center
10:16PM 40.7703 -82.2878 29° Northeast 188 216 6,800 -600 Descending Indianapolis Center
10:17PM 40.8289 -82.2378 33° Northeast 210 242 5,800 -960 Descending Indianapolis Center
10:18PM 40.8750 -82.2033 29° Northeast 223 257 5,000 -480 Descending Cleveland Center
10:19PM 40.9275 -82.1661 28° Northeast 217 250 4,900 -60 Descending Cleveland Center
10:20PM 40.9781 -82.1206 34° Northeast 199 229 4,900  Level Cleveland Center
10:21PM 41.0269 -82.0639 41° Northeast 201 231 4,900 -240 Level Cleveland Center
10:22PM 41.0631 -82.0042 51° Northeast 219 252 4,400 -600 Descending Cleveland Center
10:23PM 41.1056 -81.9389 49° Northeast 217 250 3,800 -660 Descending Cleveland Center
10:24PM 41.1458 -81.8736 51° Northeast 221 254 3,100 -420 Descending Cleveland Center
10:25PM 41.1842 -81.8219 45° Northeast 211 243 3,000 -60 Descending Cleveland Center
10:26PM 41.2219 -81.7756 43° Northeast 197 227 3,000  Level Cleveland Center
10:27PM 41.2622 -81.7211 45° Northeast 193 222 3,000  Level Cleveland Center
10:28PM 41.3003 -81.6694 46° Northeast 190 219 3,000  Level Cleveland Center
10:30PM 41.3486 -81.6314 31° Northeast 175 201 3,000  Level Cleveland Center
10:30PM 41.3822 -81.6069 29° Northeast 178 205 3,000 -60 Level Cleveland Center
10:31PM 41.4283 -81.5744 28° Northeast 175 201 2,900 -480 Descending Cleveland Center
10:32PM 41.4758 -81.6058 334° Northwest 176 203 2,100 -720 Descending Cleveland Center
10:33PM 41.5089 -81.6394 323° Northwest 166 191 1,500 -660 Descending Cleveland Center